createdAt,value
2023-05-08T00:00:21.000Z,333.5
2023-05-08T00:01:37.000Z,353.2
2023-05-08T00:02:53.000Z,325.4
2023-05-08T00:04:10.000Z,312.1
2023-05-08T00:05:26.000Z,353.2
2023-05-08T00:06:42.000Z,332.3
2023-05-08T00:07:58.000Z,322
2023-05-08T00:09:14.000Z,325.8
2023-05-08T00:10:29.000Z,340.8
2023-05-08T00:11:45.000Z,322.7
2023-05-08T00:13:02.000Z,54.4
2023-05-08T00:14:18.000Z,56.6
2023-05-08T00:15:34.000Z,36.5
2023-05-08T00:16:50.000Z,36.6
2023-05-08T00:18:06.000Z,36.4
2023-05-08T00:19:22.000Z,42
2023-05-08T00:20:38.000Z,35.6
2023-05-08T00:21:55.000Z,35.1
2023-05-08T00:23:11.000Z,34.9
2023-05-08T00:24:27.000Z,47.4
2023-05-08T00:25:43.000Z,39
2023-05-08T00:26:58.000Z,45
2023-05-08T00:28:14.000Z,43.8
2023-05-08T00:29:30.000Z,41.2
2023-05-08T00:30:47.000Z,47
2023-05-08T00:32:03.000Z,52.4
2023-05-08T00:33:19.000Z,46.4
2023-05-08T00:34:35.000Z,45.4
2023-05-08T00:35:51.000Z,47.2
2023-05-08T00:37:07.000Z,57.5
2023-05-08T00:38:23.000Z,60.2
2023-05-08T00:39:40.000Z,64.2
2023-05-08T00:40:56.000Z,49.1
2023-05-08T00:42:12.000Z,42.3
2023-05-08T00:43:27.000Z,65.2
2023-05-08T00:44:43.000Z,84.1
2023-05-08T00:45:59.000Z,92.3
2023-05-08T00:47:16.000Z,88.1
2023-05-08T00:48:32.000Z,77.9
2023-05-08T00:49:48.000Z,69.8
2023-05-08T00:51:04.000Z,72.8
2023-05-08T00:52:20.000Z,64.5
2023-05-08T00:53:36.000Z,74.8
2023-05-08T00:54:52.000Z,72.3
2023-05-08T00:56:09.000Z,71.4
2023-05-08T00:57:25.000Z,52.6
2023-05-08T00:58:41.000Z,39.6
2023-05-08T00:59:56.000Z,57.8
2023-05-08T01:01:12.000Z,35.9
2023-05-08T01:02:28.000Z,39.6
2023-05-08T01:03:44.000Z,27.4
2023-05-08T01:05:01.000Z,29.4
2023-05-08T01:06:17.000Z,22.9
2023-05-08T01:07:33.000Z,23.1
2023-05-08T01:08:49.000Z,24.2
2023-05-08T01:10:05.000Z,26.7
2023-05-08T01:11:21.000Z,25.4
2023-05-08T01:12:37.000Z,23.7
2023-05-08T01:13:54.000Z,22.7
2023-05-08T01:15:10.000Z,29.6
2023-05-08T01:16:25.000Z,27.1
2023-05-08T01:17:41.000Z,31.9
2023-05-08T01:18:57.000Z,32.1
2023-05-08T01:21:29.000Z,29.7
2023-05-08T01:22:46.000Z,35.4
2023-05-08T01:24:02.000Z,28.8
2023-05-08T01:25:18.000Z,52.4
2023-05-08T01:26:34.000Z,45.9
2023-05-08T01:27:50.000Z,36
2023-05-08T01:29:06.000Z,39.7
2023-05-08T01:30:22.000Z,42.5
2023-05-08T01:31:39.000Z,50.6
2023-05-08T01:32:54.000Z,48.3
2023-05-08T01:34:10.000Z,52.6
2023-05-08T01:35:26.000Z,65.1
2023-05-08T01:36:42.000Z,77.7
2023-05-08T01:37:58.000Z,87.9
2023-05-08T01:39:14.000Z,75.1
2023-05-08T01:40:31.000Z,76.7
2023-05-08T01:41:47.000Z,124
2023-05-08T01:43:03.000Z,132.5
2023-05-08T01:44:19.000Z,139.4
2023-05-08T01:45:35.000Z,135.4
2023-05-08T01:46:51.000Z,137.6
2023-05-08T01:48:07.000Z,121
2023-05-08T01:49:23.000Z,127.4
2023-05-08T01:50:39.000Z,133.2
2023-05-08T01:51:55.000Z,138.3
2023-05-08T01:53:11.000Z,179.5
2023-05-08T01:54:27.000Z,155.9
2023-05-08T01:55:43.000Z,177.2
2023-05-08T01:56:58.000Z,184.2
2023-05-08T01:58:15.000Z,208.4
2023-05-08T01:59:31.000Z,236.1
2023-05-08T02:00:47.000Z,209.2
2023-05-08T02:02:03.000Z,282.2
2023-05-08T02:03:19.000Z,266.5
2023-05-08T02:04:35.000Z,330.6
2023-05-08T02:05:51.000Z,273.6
2023-05-08T02:07:08.000Z,284.6
2023-05-08T02:08:24.000Z,247
2023-05-08T02:09:40.000Z,284.8
2023-05-08T02:10:56.000Z,257.5
2023-05-08T02:12:12.000Z,355.4
2023-05-08T02:13:27.000Z,349.5
2023-05-08T02:14:44.000Z,363.6
2023-05-08T02:16:00.000Z,418.4
2023-05-08T02:17:16.000Z,429.3
2023-05-08T02:18:32.000Z,499.7
2023-05-08T02:19:48.000Z,504
2023-05-08T02:21:04.000Z,547.1
2023-05-08T02:22:20.000Z,568.6
2023-05-08T02:23:37.000Z,551
2023-05-08T02:24:53.000Z,571.3
2023-05-08T02:26:09.000Z,585.8
2023-05-08T02:27:25.000Z,549.3
2023-05-08T02:28:41.000Z,557.7
2023-05-08T02:29:56.000Z,569.6
2023-05-08T02:31:12.000Z,583.8
2023-05-08T02:32:29.000Z,593.2
2023-05-08T02:33:45.000Z,588.1
2023-05-08T02:35:01.000Z,580.9
2023-05-08T02:36:17.000Z,598.2
2023-05-08T02:37:33.000Z,606
2023-05-08T02:38:49.000Z,598.7
2023-05-08T02:40:05.000Z,621.2
2023-05-08T02:42:38.000Z,628.2
2023-05-08T02:43:54.000Z,593.4
2023-05-08T02:45:10.000Z,629.1
2023-05-08T02:46:25.000Z,624.2
2023-05-08T02:47:41.000Z,636.6
2023-05-08T02:48:57.000Z,622.5
2023-05-08T02:50:14.000Z,645.8
2023-05-08T02:51:30.000Z,605
2023-05-08T02:52:46.000Z,634
2023-05-08T02:54:02.000Z,627.4
2023-05-08T02:55:18.000Z,603.1
2023-05-08T02:56:34.000Z,616.4
2023-05-08T02:57:50.000Z,617.2
2023-05-08T02:59:07.000Z,587.5
2023-05-08T03:00:23.000Z,626.4
2023-05-08T03:01:39.000Z,663.2
2023-05-08T03:02:54.000Z,638.6
2023-05-08T03:04:10.000Z,641.3
2023-05-08T03:05:26.000Z,624.7
2023-05-08T03:06:42.000Z,598.3
2023-05-08T03:07:59.000Z,676.9
2023-05-08T03:09:15.000Z,689.9
2023-05-08T03:11:47.000Z,695.6
2023-05-08T03:13:03.000Z,621.5
2023-05-08T03:14:19.000Z,685.5
2023-05-08T03:15:35.000Z,681.7
2023-05-08T03:16:52.000Z,706.9
2023-05-08T03:18:08.000Z,698.7
2023-05-08T03:19:23.000Z,684.6
2023-05-08T03:20:39.000Z,674.4
2023-05-08T03:21:55.000Z,648.1
2023-05-08T03:23:11.000Z,640
2023-05-08T03:24:27.000Z,674
2023-05-08T03:25:44.000Z,667
2023-05-08T03:27:00.000Z,698.6
2023-05-08T03:28:16.000Z,668.1
2023-05-08T03:29:32.000Z,676
2023-05-08T03:30:48.000Z,690.3
2023-05-08T03:32:04.000Z,682.3
2023-05-08T03:33:20.000Z,679.6
2023-05-08T03:34:37.000Z,713.3
2023-05-08T03:35:52.000Z,706.1
2023-05-08T03:37:08.000Z,720.7
2023-05-08T03:38:24.000Z,555.7
2023-05-08T03:39:40.000Z,659.5
2023-05-08T03:40:56.000Z,669
2023-05-08T03:42:13.000Z,647.3
2023-05-08T03:43:29.000Z,683.5
2023-05-08T03:44:45.000Z,653.2
2023-05-08T03:46:01.000Z,705.3
2023-05-08T03:47:17.000Z,676.1
2023-05-08T03:48:33.000Z,661.8
2023-05-08T03:49:49.000Z,620.6
2023-05-08T03:51:06.000Z,629.1
2023-05-08T03:52:21.000Z,624.1
2023-05-08T03:53:37.000Z,672.6
2023-05-08T03:54:53.000Z,698.6
2023-05-08T03:56:09.000Z,629.1
2023-05-08T03:57:25.000Z,715.4
2023-05-08T03:58:41.000Z,673.3
2023-05-08T03:59:58.000Z,692.8
2023-05-08T04:01:14.000Z,673.7
2023-05-08T04:02:30.000Z,700.3
2023-05-08T04:03:46.000Z,660.1
2023-05-08T04:05:02.000Z,661.9
2023-05-08T04:06:18.000Z,677.4
2023-05-08T04:07:34.000Z,645.7
2023-05-08T04:08:50.000Z,633.6
2023-05-08T04:10:06.000Z,550.5
2023-05-08T04:11:22.000Z,604.9
2023-05-08T04:12:38.000Z,644.3
2023-05-08T04:13:54.000Z,618.4
2023-05-08T04:15:10.000Z,624.6
2023-05-08T04:16:26.000Z,616.1
2023-05-08T04:17:43.000Z,592.6
2023-05-08T04:18:59.000Z,609.7
2023-05-08T04:20:15.000Z,603.2
2023-05-08T04:21:31.000Z,628.7
2023-05-08T04:22:47.000Z,603.2
2023-05-08T04:25:19.000Z,660.8
2023-05-08T04:26:35.000Z,625.9
2023-05-08T04:27:51.000Z,606.1
2023-05-08T04:29:07.000Z,562.6
2023-05-08T04:30:23.000Z,593
2023-05-08T04:31:39.000Z,579.5
2023-05-08T04:32:55.000Z,584
2023-05-08T04:34:11.000Z,594.8
2023-05-08T04:35:28.000Z,534.2
2023-05-08T04:36:44.000Z,581.1
2023-05-08T04:38:00.000Z,501.1
2023-05-08T04:39:16.000Z,538.5
2023-05-08T04:40:32.000Z,645.4
2023-05-08T04:41:48.000Z,521.6
2023-05-08T04:43:04.000Z,588.2
2023-05-08T04:44:20.000Z,489.1
2023-05-08T04:45:36.000Z,557.7
2023-05-08T04:46:52.000Z,563
2023-05-08T04:48:08.000Z,525.8
2023-05-08T04:49:24.000Z,540
2023-05-08T04:50:40.000Z,593.1
2023-05-08T04:51:57.000Z,605.9
2023-05-08T04:53:13.000Z,606.2
2023-05-08T04:54:29.000Z,503.8
2023-05-08T04:55:45.000Z,584
2023-05-08T04:57:01.000Z,551.2
2023-05-08T04:58:17.000Z,555.5
2023-05-08T04:59:32.000Z,597.1
2023-05-08T05:00:49.000Z,621.5
2023-05-08T05:02:05.000Z,492.8
2023-05-08T05:03:21.000Z,572.4
2023-05-08T05:04:37.000Z,565.4
2023-05-08T05:05:53.000Z,500.5
2023-05-08T05:07:09.000Z,624.6
2023-05-08T05:08:25.000Z,408.1
2023-05-08T05:09:42.000Z,534.8
2023-05-08T05:10:58.000Z,473.9
2023-05-08T05:12:14.000Z,469.7
2023-05-08T05:13:30.000Z,568.1
2023-05-08T05:14:46.000Z,590.7
2023-05-08T05:16:01.000Z,476.1
2023-05-08T05:17:17.000Z,521.6
2023-05-08T05:18:34.000Z,500.6
2023-05-08T05:19:50.000Z,494.1
2023-05-08T05:21:06.000Z,492.4
2023-05-08T05:22:22.000Z,594.7
2023-05-08T05:23:38.000Z,350.5
2023-05-08T05:24:54.000Z,559.4
2023-05-08T05:26:10.000Z,516.6
2023-05-08T05:27:27.000Z,549.2
2023-05-08T05:28:43.000Z,554.9
2023-05-08T05:29:59.000Z,559.5
2023-05-08T05:31:15.000Z,573.3
2023-05-08T05:32:30.000Z,550.4
2023-05-08T05:33:46.000Z,512.3
2023-05-08T05:35:02.000Z,538.5
2023-05-08T05:36:19.000Z,536.2
2023-05-08T05:37:35.000Z,477.9
2023-05-08T05:38:51.000Z,484.5
2023-05-08T05:40:07.000Z,387.5
2023-05-08T05:41:23.000Z,459.8
2023-05-08T05:42:39.000Z,478.2
2023-05-08T05:43:56.000Z,469.8
2023-05-08T05:45:12.000Z,464.4
2023-05-08T05:46:28.000Z,498.1
2023-05-08T05:47:44.000Z,509.8
2023-05-08T05:48:59.000Z,538.8
2023-05-08T05:50:15.000Z,564.2
2023-05-08T05:51:31.000Z,654
2023-05-08T05:52:48.000Z,639.7
2023-05-08T05:54:04.000Z,614.2
2023-05-08T05:56:36.000Z,611.6
2023-05-08T05:57:52.000Z,633.2
2023-05-08T06:00:24.000Z,674.5
2023-05-08T06:01:41.000Z,617
2023-05-08T06:02:57.000Z,639.6
2023-05-08T06:04:13.000Z,564.4
2023-05-08T06:05:28.000Z,600.7
2023-05-08T06:06:44.000Z,648.8
2023-05-08T06:08:00.000Z,669.3
2023-05-08T06:09:16.000Z,456.8
2023-05-08T06:10:33.000Z,613.9
2023-05-08T06:11:48.000Z,497.5
2023-05-08T06:13:04.000Z,510.6
2023-05-08T06:14:20.000Z,533.3
2023-05-08T06:15:36.000Z,605.9
2023-05-08T06:16:52.000Z,592.7
2023-05-08T06:18:08.000Z,604.1
2023-05-08T06:19:25.000Z,495.5
2023-05-08T06:20:41.000Z,569.8
2023-05-08T06:21:57.000Z,616.7
2023-05-08T06:23:13.000Z,507.8
2023-05-08T06:24:29.000Z,463.6
2023-05-08T06:25:45.000Z,478.3
2023-05-08T06:27:01.000Z,522.6
2023-05-08T06:28:17.000Z,531.5
2023-05-08T06:29:33.000Z,562.3
2023-05-08T06:30:49.000Z,533.6
2023-05-08T06:32:05.000Z,508.5
2023-05-08T06:33:21.000Z,504.4
2023-05-08T06:34:37.000Z,513.2
2023-05-08T06:35:54.000Z,570.8
2023-05-08T06:37:10.000Z,544.7
2023-05-08T06:38:26.000Z,620.1
2023-05-08T06:39:42.000Z,555.7
2023-05-08T06:40:58.000Z,600.7
2023-05-08T06:42:14.000Z,598
2023-05-08T06:43:30.000Z,688.3
2023-05-08T06:44:46.000Z,588.7
2023-05-08T06:46:02.000Z,484.5
2023-05-08T06:47:18.000Z,512.7
2023-05-08T06:48:34.000Z,599.1
2023-05-08T06:49:50.000Z,563.2
2023-05-08T06:51:06.000Z,642.1
2023-05-08T06:52:22.000Z,551.3
2023-05-08T06:53:39.000Z,589.1
2023-05-08T06:54:55.000Z,528.3
2023-05-08T06:56:11.000Z,596
2023-05-08T06:57:27.000Z,596.1
2023-05-08T06:58:43.000Z,550.8
2023-05-08T06:59:59.000Z,579.6
2023-05-08T07:01:14.000Z,470
2023-05-08T07:02:31.000Z,577.8
2023-05-08T07:03:47.000Z,497.5
2023-05-08T07:05:03.000Z,579
2023-05-08T07:06:19.000Z,431.8
2023-05-08T07:07:35.000Z,550.1
2023-05-08T07:08:51.000Z,521.8
2023-05-08T07:10:07.000Z,516.1
2023-05-08T07:11:24.000Z,579.7
2023-05-08T07:12:40.000Z,569.8
2023-05-08T07:13:56.000Z,485.6
2023-05-08T07:15:12.000Z,430.8
2023-05-08T07:16:28.000Z,563.7
2023-05-08T07:17:43.000Z,556.3
2023-05-08T07:18:59.000Z,593.2
2023-05-08T07:20:16.000Z,547.5
2023-05-08T07:21:32.000Z,564.8
2023-05-08T07:22:48.000Z,606.8
2023-05-08T07:24:04.000Z,634.9
2023-05-08T07:25:20.000Z,484.5
2023-05-08T07:26:36.000Z,518.7
2023-05-08T07:27:52.000Z,520.5
2023-05-08T07:29:09.000Z,470
2023-05-08T07:30:25.000Z,492.5
2023-05-08T07:31:41.000Z,375.2
2023-05-08T07:32:57.000Z,49.7
2023-05-08T07:34:12.000Z,408.4
2023-05-08T07:35:28.000Z,215.6
2023-05-08T07:36:45.000Z,483.1
2023-05-08T07:38:01.000Z,216.1
2023-05-08T07:39:17.000Z,376.3
2023-05-08T07:40:33.000Z,328.7
2023-05-08T07:41:49.000Z,268.4
2023-05-08T07:43:05.000Z,184.3
2023-05-08T07:44:21.000Z,243.3
2023-05-08T07:45:38.000Z,204.8
2023-05-08T07:46:54.000Z,306.9
2023-05-08T07:48:10.000Z,194.3
2023-05-08T07:49:26.000Z,364.2
2023-05-08T07:50:41.000Z,149
2023-05-08T07:51:57.000Z,113.7
2023-05-08T07:53:13.000Z,72.8
2023-05-08T07:54:30.000Z,102.3
2023-05-08T07:55:46.000Z,68.9
2023-05-08T07:57:02.000Z,56.1
2023-05-08T07:58:18.000Z,176.5
2023-05-08T07:59:34.000Z,141.1
2023-05-08T08:00:50.000Z,112.8
2023-05-08T08:02:06.000Z,61.7
2023-05-08T08:03:23.000Z,138.4
2023-05-08T08:04:39.000Z,121.8
2023-05-08T08:05:55.000Z,148.7
2023-05-08T08:07:10.000Z,143.4
2023-05-08T08:08:26.000Z,167.7
2023-05-08T08:09:42.000Z,176.8
2023-05-08T08:10:58.000Z,226.8
2023-05-08T08:12:15.000Z,159.3
2023-05-08T08:13:31.000Z,123
2023-05-08T08:14:47.000Z,57.7
2023-05-08T08:16:03.000Z,99.3
2023-05-08T08:17:19.000Z,203.5
2023-05-08T08:18:35.000Z,194.2
2023-05-08T08:19:51.000Z,226.5
2023-05-08T08:21:08.000Z,187.4
2023-05-08T08:22:24.000Z,185
2023-05-08T08:23:39.000Z,150.2
2023-05-08T08:24:55.000Z,152.6
2023-05-08T08:26:11.000Z,154.4
2023-05-08T08:27:27.000Z,128.1
2023-05-08T08:28:44.000Z,99.6
2023-05-08T08:30:00.000Z,144.9
2023-05-08T08:31:16.000Z,91.3
2023-05-08T08:32:32.000Z,66.5
2023-05-08T08:33:48.000Z,83.6
2023-05-08T08:35:04.000Z,77.9
2023-05-08T08:36:20.000Z,38
2023-05-08T08:37:37.000Z,41.4
2023-05-08T08:38:53.000Z,42.7
2023-05-08T08:40:08.000Z,56.1
2023-05-08T08:41:24.000Z,47.2
2023-05-08T08:42:40.000Z,41.1
2023-05-08T08:43:56.000Z,46.8
2023-05-08T08:45:12.000Z,47.7
2023-05-08T08:46:29.000Z,41
2023-05-08T08:47:45.000Z,33.1
2023-05-08T08:49:01.000Z,33.9
2023-05-08T08:50:17.000Z,37.7
2023-05-08T08:51:33.000Z,27.8
2023-05-08T08:52:49.000Z,29
2023-05-08T08:54:05.000Z,34.1
2023-05-08T08:55:22.000Z,26.8
2023-05-08T08:56:37.000Z,16.4
2023-05-08T08:57:53.000Z,17.1
2023-05-08T08:59:09.000Z,23.4
2023-05-08T09:00:25.000Z,14.2
2023-05-08T09:01:41.000Z,12.8
2023-05-08T09:02:57.000Z,14.1
2023-05-08T09:04:14.000Z,14.1
2023-05-08T09:05:30.000Z,16.1
2023-05-08T09:06:46.000Z,16.1
2023-05-08T09:08:02.000Z,12.6
2023-05-08T09:09:18.000Z,27.3
2023-05-08T09:10:34.000Z,12.2
2023-05-08T09:11:50.000Z,13
2023-05-08T09:13:06.000Z,13
2023-05-08T09:14:22.000Z,10.8
2023-05-08T09:15:38.000Z,11
2023-05-08T09:16:54.000Z,5.1
2023-05-08T09:18:10.000Z,4.8
2023-05-08T09:19:26.000Z,5
2023-05-08T09:20:43.000Z,5.1
2023-05-08T09:21:59.000Z,5.4
2023-05-08T09:23:15.000Z,4.8
2023-05-08T09:24:31.000Z,4.8
2023-05-08T09:25:47.000Z,4.7
2023-05-08T09:27:03.000Z,4.2
2023-05-08T09:28:19.000Z,4.1
2023-05-08T09:29:35.000Z,4.9
2023-05-08T09:30:51.000Z,4.3
2023-05-08T09:32:07.000Z,4.6
2023-05-08T09:33:23.000Z,4.4
2023-05-08T09:34:39.000Z,4.3
2023-05-08T09:35:55.000Z,4.3
2023-05-08T09:37:11.000Z,4.4
2023-05-08T09:38:28.000Z,3.5
2023-05-08T09:39:44.000Z,3.7
2023-05-08T09:41:00.000Z,4.3
2023-05-08T09:42:16.000Z,4.3
2023-05-08T09:43:32.000Z,4.1
2023-05-08T09:44:48.000Z,4.1
2023-05-08T09:46:03.000Z,4.1
2023-05-08T09:47:20.000Z,4
2023-05-08T09:48:36.000Z,4.3
2023-05-08T09:49:52.000Z,4
2023-05-08T09:51:08.000Z,3.9
2023-05-08T09:52:24.000Z,4.1
2023-05-08T09:53:40.000Z,3.9
2023-05-08T09:54:56.000Z,3.6
2023-05-08T09:56:13.000Z,3.8
2023-05-08T09:57:29.000Z,4
2023-05-08T09:58:45.000Z,3.9
2023-05-08T10:00:01.000Z,3.9
2023-05-08T10:01:17.000Z,4
2023-05-08T10:02:32.000Z,3.3
2023-05-08T10:03:48.000Z,4
2023-05-08T10:05:05.000Z,3.8
2023-05-08T10:06:21.000Z,3.3
2023-05-08T10:07:37.000Z,3.6
2023-05-08T10:08:53.000Z,3.9
2023-05-08T10:10:09.000Z,3.3
2023-05-08T10:11:25.000Z,3.8
2023-05-08T10:12:41.000Z,3.2
2023-05-08T10:13:58.000Z,3.5
2023-05-08T10:15:14.000Z,3.4
2023-05-08T10:16:30.000Z,3.6
2023-05-08T10:17:46.000Z,3.4
2023-05-08T10:19:01.000Z,3.4
2023-05-08T10:20:17.000Z,3.5
2023-05-08T10:21:34.000Z,3.5
2023-05-08T10:22:50.000Z,3.4
2023-05-08T10:24:06.000Z,3.2
2023-05-08T10:25:22.000Z,3.1
2023-05-08T10:26:37.000Z,3.1
2023-05-08T10:27:53.000Z,3.3
2023-05-08T10:29:09.000Z,3.5
2023-05-08T10:30:26.000Z,3.3
2023-05-08T10:31:42.000Z,3.4
2023-05-08T10:32:58.000Z,3.1
2023-05-08T10:34:14.000Z,3.6
2023-05-08T10:35:30.000Z,3.3
2023-05-08T10:36:46.000Z,3.2
2023-05-08T10:38:02.000Z,3.3
2023-05-08T10:39:19.000Z,2.9
2023-05-08T10:40:35.000Z,3.4
2023-05-08T10:41:51.000Z,3.5
2023-05-08T10:43:06.000Z,3.6
2023-05-08T10:44:22.000Z,3.1
2023-05-08T10:45:38.000Z,3.5
2023-05-08T10:46:54.000Z,3.7
2023-05-08T10:48:11.000Z,3.2
2023-05-08T10:49:27.000Z,3.2
2023-05-08T10:50:43.000Z,3.7
2023-05-08T10:51:59.000Z,3
2023-05-08T10:53:15.000Z,3.8
2023-05-08T10:54:31.000Z,3.6
2023-05-08T10:55:47.000Z,2.8
2023-05-08T10:57:04.000Z,3.3
2023-05-08T10:58:20.000Z,3
2023-05-08T10:59:35.000Z,3.6
2023-05-08T11:00:51.000Z,3.4
2023-05-08T11:02:07.000Z,3.3
2023-05-08T11:03:23.000Z,3
2023-05-08T11:04:39.000Z,3.1
2023-05-08T11:05:56.000Z,3.2
2023-05-08T11:07:12.000Z,3.1
2023-05-08T11:08:28.000Z,3.3
2023-05-08T11:09:44.000Z,3.3
2023-05-08T11:11:00.000Z,3
2023-05-08T11:12:16.000Z,3.3
2023-05-08T11:13:33.000Z,3.1
2023-05-08T11:14:49.000Z,3.1
2023-05-08T11:16:04.000Z,3
2023-05-08T11:17:20.000Z,3.2
2023-05-08T11:18:36.000Z,3
2023-05-08T11:19:52.000Z,3
2023-05-08T11:21:08.000Z,3.1
2023-05-08T11:23:41.000Z,2.8
2023-05-08T11:24:57.000Z,3.1
2023-05-08T11:26:13.000Z,2.9
2023-05-08T11:27:29.000Z,2.9
2023-05-08T11:28:45.000Z,2.6
2023-05-08T11:30:01.000Z,2.9
2023-05-08T11:31:18.000Z,2.6
2023-05-08T11:32:33.000Z,3
2023-05-08T11:33:49.000Z,2.7
2023-05-08T11:35:05.000Z,2.6
2023-05-08T11:36:21.000Z,2.9
2023-05-08T11:37:37.000Z,2.8
2023-05-08T11:38:53.000Z,2.9
2023-05-08T11:40:10.000Z,3.3
2023-05-08T11:41:26.000Z,2.5
2023-05-08T11:42:42.000Z,2.7
2023-05-08T11:43:58.000Z,2.6
2023-05-08T11:45:14.000Z,2.8
2023-05-08T11:46:30.000Z,2.9
2023-05-08T11:47:46.000Z,2.9
2023-05-08T11:49:02.000Z,3.4
2023-05-08T11:50:18.000Z,2.7
2023-05-08T11:51:34.000Z,3.1
2023-05-08T11:52:50.000Z,2.9
2023-05-08T11:54:06.000Z,2.9
2023-05-08T11:55:22.000Z,2.9
2023-05-08T11:56:38.000Z,2.3
2023-05-08T11:57:55.000Z,2.4
2023-05-08T11:59:11.000Z,2.6
2023-05-08T12:00:27.000Z,2.6
2023-05-08T12:01:43.000Z,2.9
2023-05-08T12:02:59.000Z,2.6
2023-05-08T12:04:15.000Z,2.3
2023-05-08T12:05:31.000Z,2.7
2023-05-08T12:06:47.000Z,2.4
2023-05-08T12:08:03.000Z,2.3
2023-05-08T12:09:19.000Z,2.4
2023-05-08T12:10:35.000Z,2.7
2023-05-08T12:11:51.000Z,2.5
2023-05-08T12:13:07.000Z,3
2023-05-08T12:14:24.000Z,2.7
2023-05-08T12:15:40.000Z,2.6
2023-05-08T12:16:56.000Z,2.5
2023-05-08T12:18:12.000Z,2.6
2023-05-08T12:19:28.000Z,2.7
2023-05-08T12:20:44.000Z,3
2023-05-08T12:21:59.000Z,2.4
2023-05-08T12:24:32.000Z,2.4
2023-05-08T12:25:48.000Z,2.6
2023-05-08T12:27:04.000Z,2.4
2023-05-08T12:28:20.000Z,2.1
2023-05-08T12:29:36.000Z,2.7
2023-05-08T12:30:52.000Z,2.5
2023-05-08T12:32:09.000Z,2.8
2023-05-08T12:33:25.000Z,2.8
2023-05-08T12:34:41.000Z,2.6
2023-05-08T12:35:57.000Z,2.5
2023-05-08T12:37:13.000Z,2.8
2023-05-08T12:38:28.000Z,2.4
2023-05-08T12:39:44.000Z,2.5
2023-05-08T12:41:01.000Z,2.7
2023-05-08T12:42:17.000Z,2.7
2023-05-08T12:43:33.000Z,2.4
2023-05-08T12:44:49.000Z,2.4
2023-05-08T12:46:05.000Z,2.5
2023-05-08T12:47:21.000Z,2.5
2023-05-08T12:48:37.000Z,2.9
2023-05-08T12:49:54.000Z,2.3
2023-05-08T12:51:10.000Z,2.4
2023-05-08T12:52:26.000Z,2.5
2023-05-08T12:53:42.000Z,2.1
2023-05-08T12:54:57.000Z,2.6
2023-05-08T12:56:13.000Z,2.7
2023-05-08T12:57:29.000Z,2.5
2023-05-08T12:58:46.000Z,2.6
2023-05-08T13:00:02.000Z,2.3
2023-05-08T13:01:18.000Z,2.2
2023-05-08T13:02:34.000Z,2.4
2023-05-08T13:03:50.000Z,2.3
2023-05-08T13:05:06.000Z,2.5
2023-05-08T13:06:23.000Z,2.1
2023-05-08T13:07:39.000Z,2.5
2023-05-08T13:08:55.000Z,2.1
2023-05-08T13:10:11.000Z,2.5
2023-05-08T13:11:26.000Z,2.1
2023-05-08T13:12:42.000Z,2.6
2023-05-08T13:13:58.000Z,2.4
2023-05-08T13:15:15.000Z,2.3
2023-05-08T13:16:31.000Z,2.4
2023-05-08T13:17:47.000Z,2.1
2023-05-08T13:19:03.000Z,2.3
2023-05-08T13:20:19.000Z,2.1
2023-05-08T13:21:35.000Z,2.4
2023-05-08T13:22:51.000Z,2.3
2023-05-08T13:24:08.000Z,2.3
2023-05-08T13:25:24.000Z,2
2023-05-08T13:26:40.000Z,2.2
2023-05-08T13:27:55.000Z,2.2
2023-05-08T13:29:11.000Z,2.4
2023-05-08T13:30:27.000Z,2.2
2023-05-08T13:31:43.000Z,2.2
2023-05-08T13:33:00.000Z,2.3
2023-05-08T13:34:16.000Z,2
2023-05-08T13:35:32.000Z,2.4
2023-05-08T13:36:48.000Z,2.1
2023-05-08T13:38:04.000Z,2.3
2023-05-08T13:39:20.000Z,2.2
2023-05-08T13:40:36.000Z,2.4
2023-05-08T13:41:53.000Z,2.2
2023-05-08T13:43:09.000Z,2.1
2023-05-08T13:44:24.000Z,2.2
2023-05-08T13:45:40.000Z,2.4
2023-05-08T13:46:56.000Z,2.2
2023-05-08T13:48:12.000Z,2.3
2023-05-08T13:49:28.000Z,2.3
2023-05-08T13:50:45.000Z,2
2023-05-08T13:52:01.000Z,2.2
2023-05-08T13:53:17.000Z,2.5
2023-05-08T13:54:33.000Z,2.1
2023-05-08T13:55:49.000Z,2.4
2023-05-08T13:57:05.000Z,1.9
2023-05-08T13:58:21.000Z,2
2023-05-08T13:59:38.000Z,2.1
2023-05-08T14:00:53.000Z,2.7
2023-05-08T14:02:09.000Z,2.6
2023-05-08T14:03:25.000Z,1.9
2023-05-08T14:04:41.000Z,2.3
2023-05-08T14:05:57.000Z,2.3
2023-05-08T14:07:14.000Z,2.4
2023-05-08T14:08:30.000Z,2.1
2023-05-08T14:09:46.000Z,2.2
2023-05-08T14:11:02.000Z,2.3
2023-05-08T14:12:18.000Z,2.3
2023-05-08T14:13:34.000Z,2.4
2023-05-08T14:14:50.000Z,2.4
2023-05-08T14:16:07.000Z,2.2
2023-05-08T14:17:22.000Z,2.5
2023-05-08T14:18:38.000Z,2.4
2023-05-08T14:19:54.000Z,2.3
2023-05-08T14:21:10.000Z,2.3
2023-05-08T14:22:26.000Z,2.4
2023-05-08T14:23:42.000Z,2.3
2023-05-08T14:24:59.000Z,2.3
2023-05-08T14:26:15.000Z,2
2023-05-08T14:27:31.000Z,2
2023-05-08T14:28:47.000Z,2.5
2023-05-08T14:30:03.000Z,2.2
2023-05-08T14:31:19.000Z,2.4
2023-05-08T14:32:35.000Z,2.6
2023-05-08T14:33:51.000Z,2.2
2023-05-08T14:35:07.000Z,2.3
2023-05-08T14:36:23.000Z,1.8
2023-05-08T14:37:39.000Z,2.4
2023-05-08T14:38:55.000Z,2.2
2023-05-08T14:40:11.000Z,1.8
2023-05-08T14:41:26.000Z,1.8
2023-05-08T14:42:43.000Z,2.1
2023-05-08T14:43:59.000Z,2.2
2023-05-08T14:45:15.000Z,2.2
2023-05-08T14:46:31.000Z,1.8
2023-05-08T14:47:47.000Z,2
2023-05-08T14:49:03.000Z,2.1
2023-05-08T14:50:19.000Z,2.2
2023-05-08T14:51:36.000Z,1.9
2023-05-08T14:52:52.000Z,2.3
2023-05-08T14:54:08.000Z,2.1
2023-05-08T14:55:24.000Z,2
2023-05-08T14:56:40.000Z,1.9
2023-05-08T14:57:55.000Z,1.8
2023-05-08T14:59:11.000Z,1.8
2023-05-08T15:00:28.000Z,2
2023-05-08T15:01:44.000Z,1.8
2023-05-08T15:03:00.000Z,2.1
2023-05-08T15:04:16.000Z,2.1
2023-05-08T15:05:32.000Z,2.2
2023-05-08T15:06:48.000Z,2.1
2023-05-08T15:08:04.000Z,1.8
2023-05-08T15:09:21.000Z,1.9
2023-05-08T15:10:37.000Z,2.1
2023-05-08T15:11:53.000Z,2
2023-05-08T15:13:09.000Z,1.7
2023-05-08T15:14:24.000Z,2.3
2023-05-08T15:15:40.000Z,2
2023-05-08T15:16:56.000Z,1.9
2023-05-08T15:18:13.000Z,2.1
2023-05-08T15:19:29.000Z,1.7
2023-05-08T15:20:45.000Z,1.9
2023-05-08T15:22:01.000Z,2.2
2023-05-08T15:23:17.000Z,1.8
2023-05-08T15:24:33.000Z,1.8
2023-05-08T15:25:49.000Z,1.7
2023-05-08T15:27:06.000Z,2.1
2023-05-08T15:28:22.000Z,1.8
2023-05-08T15:29:38.000Z,1.9
2023-05-08T15:30:53.000Z,1.9
2023-05-08T15:32:09.000Z,1.7
2023-05-08T15:33:25.000Z,2.1
2023-05-08T15:34:42.000Z,1.9
2023-05-08T15:35:58.000Z,1.8
2023-05-08T15:37:14.000Z,2
2023-05-08T15:38:30.000Z,1.9
2023-05-08T15:39:46.000Z,1.7
2023-05-08T15:41:02.000Z,1.8
2023-05-08T15:43:35.000Z,1.8
2023-05-08T15:44:51.000Z,2
2023-05-08T15:46:07.000Z,1.9
2023-05-08T15:47:22.000Z,2
2023-05-08T15:48:38.000Z,2.2
2023-05-08T15:49:54.000Z,2.1
2023-05-08T15:51:10.000Z,2.2
2023-05-08T15:52:27.000Z,1.7
2023-05-08T15:53:43.000Z,1.7
2023-05-08T15:54:59.000Z,1.8
2023-05-08T15:56:15.000Z,1.9
2023-05-08T15:57:31.000Z,2
2023-05-08T15:58:47.000Z,2.2
2023-05-08T16:00:03.000Z,1.9
2023-05-08T16:01:20.000Z,1.9
2023-05-08T16:02:36.000Z,2
2023-05-08T16:03:51.000Z,1.8
2023-05-08T16:05:07.000Z,2.1
2023-05-08T16:06:23.000Z,1.9
2023-05-08T16:07:39.000Z,1.7
2023-05-08T16:08:55.000Z,1.7
2023-05-08T16:10:12.000Z,1.6
2023-05-08T16:11:28.000Z,2.1
2023-05-08T16:12:44.000Z,1.9
2023-05-08T16:14:00.000Z,1.9
2023-05-08T16:15:16.000Z,1.8
2023-05-08T16:16:32.000Z,1.9
2023-05-08T16:17:48.000Z,1.7
2023-05-08T16:19:05.000Z,2
2023-05-08T16:20:20.000Z,1.7
2023-05-08T16:21:36.000Z,2.1
2023-05-08T16:22:52.000Z,1.9
2023-05-08T16:24:08.000Z,1.6
2023-05-08T16:25:24.000Z,2
2023-05-08T16:26:40.000Z,1.8
2023-05-08T16:27:57.000Z,1.9
2023-05-08T16:29:13.000Z,1.9
2023-05-08T16:30:29.000Z,2.2
2023-05-08T16:31:45.000Z,2.1
2023-05-08T16:33:01.000Z,2
2023-05-08T16:34:17.000Z,1.9
2023-05-08T16:35:33.000Z,1.9
2023-05-08T16:36:49.000Z,1.8
2023-05-08T16:38:05.000Z,1.9
2023-05-08T16:39:21.000Z,1.6
2023-05-08T16:40:37.000Z,1.8
2023-05-08T16:41:53.000Z,1.6
2023-05-08T16:43:09.000Z,2
2023-05-08T16:44:25.000Z,1.8
2023-05-08T16:45:42.000Z,2.1
2023-05-08T16:46:58.000Z,2
2023-05-08T16:48:14.000Z,1.7
2023-05-08T16:49:30.000Z,2.1
2023-05-08T16:50:46.000Z,2
2023-05-08T16:52:02.000Z,1.9
2023-05-08T16:53:17.000Z,2
2023-05-08T16:54:34.000Z,1.9
2023-05-08T16:55:50.000Z,1.8
2023-05-08T16:57:06.000Z,2
2023-05-08T16:58:22.000Z,1.9
2023-05-08T16:59:38.000Z,2.3
2023-05-08T17:00:54.000Z,2.1
2023-05-08T17:02:10.000Z,1.7
2023-05-08T17:04:43.000Z,2.5
2023-05-08T17:05:59.000Z,1.9
2023-05-08T17:07:15.000Z,1.9
2023-05-08T17:08:31.000Z,1.9
2023-05-08T17:09:46.000Z,2.1
2023-05-08T17:11:03.000Z,2.2
2023-05-08T17:12:19.000Z,1.8
2023-05-08T17:13:35.000Z,1.6